sensor_id;sensor_type;location;lat;lon;timestamp;P1;durP1;ratioP1;P2;durP2;ratioP2
74624;SDS011;63131;52.298;8.056;2023-02-12T00:00:50;13.75;;;5.28;;
74624;SDS011;63131;52.298;8.056;2023-02-12T00:03:16;9.68;;;4.63;;
74624;SDS011;63131;52.298;8.056;2023-02-12T00:05:41;12.32;;;5.10;;
74624;SDS011;63131;52.298;8.056;2023-02-12T00:08:07;11.38;;;5.25;;
74624;SDS011;63131;52.298;8.056;2023-02-12T00:10:33;12.95;;;5.00;;
74624;SDS011;63131;52.298;8.056;2023-02-12T00:12:58;10.40;;;5.03;;
74624;SDS011;63131;52.298;8.056;2023-02-12T00:15:24;12.07;;;5.38;;
74624;SDS011;63131;52.298;8.056;2023-02-12T00:17:49;13.35;;;4.10;;
74624;SDS011;63131;52.298;8.056;2023-02-12T00:20:14;11.63;;;4.40;;
74624;SDS011;63131;52.298;8.056;2023-02-12T00:22:40;11.45;;;4.80;;
74624;SDS011;63131;52.298;8.056;2023-02-12T00:25:05;11.60;;;5.30;;
74624;SDS011;63131;52.298;8.056;2023-02-12T00:27:31;12.15;;;4.93;;
74624;SDS011;63131;52.298;8.056;2023-02-12T00:29:57;9.70;;;4.35;;
74624;SDS011;63131;52.298;8.056;2023-02-12T00:32:22;11.43;;;5.35;;
74624;SDS011;63131;52.298;8.056;2023-02-12T00:34:48;12.98;;;5.25;;
74624;SDS011;63131;52.298;8.056;2023-02-12T00:37:13;14.30;;;4.55;;
74624;SDS011;63131;52.298;8.056;2023-02-12T00:39:39;15.43;;;5.10;;
74624;SDS011;63131;52.298;8.056;2023-02-12T00:42:04;11.57;;;4.68;;
74624;SDS011;63131;52.298;8.056;2023-02-12T00:44:29;11.85;;;5.35;;
74624;SDS011;63131;52.298;8.056;2023-02-12T00:46:55;9.80;;;4.40;;
74624;SDS011;63131;52.298;8.056;2023-02-12T00:49:21;13.65;;;5.38;;
74624;SDS011;63131;52.298;8.056;2023-02-12T00:51:46;13.73;;;5.80;;
74624;SDS011;63131;52.298;8.056;2023-02-12T00:54:12;13.93;;;4.30;;
74624;SDS011;63131;52.298;8.056;2023-02-12T00:56:37;12.25;;;4.50;;
74624;SDS011;63131;52.298;8.056;2023-02-12T00:59:02;14.30;;;5.75;;
74624;SDS011;63131;52.298;8.056;2023-02-12T01:01:28;15.15;;;5.65;;
74624;SDS011;63131;52.298;8.056;2023-02-12T01:03:53;13.13;;;5.97;;
74624;SDS011;63131;52.298;8.056;2023-02-12T01:06:18;11.63;;;5.95;;
74624;SDS011;63131;52.298;8.056;2023-02-12T01:08:44;13.00;;;5.65;;
74624;SDS011;63131;52.298;8.056;2023-02-12T01:11:10;15.70;;;6.22;;
74624;SDS011;63131;52.298;8.056;2023-02-12T01:13:36;16.52;;;6.50;;
74624;SDS011;63131;52.298;8.056;2023-02-12T01:18:36;11.98;;;5.82;;
74624;SDS011;63131;52.298;8.056;2023-02-12T01:21:09;15.43;;;6.20;;
74624;SDS011;63131;52.298;8.056;2023-02-12T01:23:35;14.90;;;6.20;;
74624;SDS011;63131;52.298;8.056;2023-02-12T01:26:01;16.65;;;6.43;;
74624;SDS011;63131;52.298;8.056;2023-02-12T01:28:26;13.52;;;5.90;;
74624;SDS011;63131;52.298;8.056;2023-02-12T01:30:51;16.90;;;7.32;;
74624;SDS011;63131;52.298;8.056;2023-02-12T01:33:17;17.67;;;6.85;;
74624;SDS011;63131;52.298;8.056;2023-02-12T01:35:42;15.32;;;6.93;;
74624;SDS011;63131;52.298;8.056;2023-02-12T01:38:07;14.43;;;6.32;;
74624;SDS011;63131;52.298;8.056;2023-02-12T01:40:33;12.95;;;6.05;;
74624;SDS011;63131;52.298;8.056;2023-02-12T01:43:01;13.77;;;6.80;;
74624;SDS011;63131;52.298;8.056;2023-02-12T01:47:52;14.97;;;6.43;;
74624;SDS011;63131;52.298;8.056;2023-02-12T01:50:18;14.05;;;7.43;;
74624;SDS011;63131;52.298;8.056;2023-02-12T01:52:46;14.85;;;7.22;;
74624;SDS011;63131;52.298;8.056;2023-02-12T01:55:13;15.27;;;7.47;;
74624;SDS011;63131;52.298;8.056;2023-02-12T01:57:40;13.52;;;6.32;;
74624;SDS011;63131;52.298;8.056;2023-02-12T02:00:12;15.27;;;6.43;;
74624;SDS011;63131;52.298;8.056;2023-02-12T02:02:41;16.65;;;7.43;;
74624;SDS011;63131;52.298;8.056;2023-02-12T02:05:07;17.95;;;7.95;;
74624;SDS011;63131;52.298;8.056;2023-02-12T02:07:32;16.35;;;7.53;;
74624;SDS011;63131;52.298;8.056;2023-02-12T02:09:58;18.13;;;7.57;;
74624;SDS011;63131;52.298;8.056;2023-02-12T02:12:24;16.02;;;8.30;;
74624;SDS011;63131;52.298;8.056;2023-02-12T02:15:09;17.85;;;8.18;;
74624;SDS011;63131;52.298;8.056;2023-02-12T02:17:46;16.77;;;7.90;;
74624;SDS011;63131;52.298;8.056;2023-02-12T02:30:56;18.73;;;8.87;;
74624;SDS011;63131;52.298;8.056;2023-02-12T02:36:16;18.27;;;8.52;;
74624;SDS011;63131;52.298;8.056;2023-02-12T02:41:55;17.60;;;9.30;;
74624;SDS011;63131;52.298;8.056;2023-02-12T02:44:25;23.38;;;9.07;;
74624;SDS011;63131;52.298;8.056;2023-02-12T02:46:58;19.25;;;10.25;;
74624;SDS011;63131;52.298;8.056;2023-02-12T02:49:26;18.73;;;9.38;;
74624;SDS011;63131;52.298;8.056;2023-02-12T02:51:55;20.80;;;10.38;;
74624;SDS011;63131;52.298;8.056;2023-02-12T02:54:36;20.48;;;9.70;;
74624;SDS011;63131;52.298;8.056;2023-02-12T02:57:07;21.08;;;9.93;;
74624;SDS011;63131;52.298;8.056;2023-02-12T02:59:36;20.92;;;9.65;;
74624;SDS011;63131;52.298;8.056;2023-02-12T03:02:08;23.23;;;10.93;;
74624;SDS011;63131;52.298;8.056;2023-02-12T03:04:56;21.55;;;11.88;;
74624;SDS011;63131;52.298;8.056;2023-02-12T03:07:25;19.35;;;10.48;;
74624;SDS011;63131;52.298;8.056;2023-02-12T03:10:03;21.42;;;10.85;;
74624;SDS011;63131;52.298;8.056;2023-02-12T03:13:01;22.25;;;9.73;;
74624;SDS011;63131;52.298;8.056;2023-02-12T03:15:32;26.35;;;11.23;;
74624;SDS011;63131;52.298;8.056;2023-02-12T03:18:20;20.95;;;10.02;;
74624;SDS011;63131;52.298;8.056;2023-02-12T03:20:49;19.38;;;9.43;;
74624;SDS011;63131;52.298;8.056;2023-02-12T03:23:19;18.30;;;10.98;;
74624;SDS011;63131;52.298;8.056;2023-02-12T03:25:51;21.25;;;10.82;;
74624;SDS011;63131;52.298;8.056;2023-02-12T03:28:27;27.25;;;10.88;;
74624;SDS011;63131;52.298;8.056;2023-02-12T03:30:57;24.13;;;11.55;;
74624;SDS011;63131;52.298;8.056;2023-02-12T03:36:33;20.75;;;9.75;;
74624;SDS011;63131;52.298;8.056;2023-02-12T03:39:05;18.67;;;9.95;;
74624;SDS011;63131;52.298;8.056;2023-02-12T03:41:45;22.98;;;10.00;;
74624;SDS011;63131;52.298;8.056;2023-02-12T03:44:17;19.95;;;10.35;;
74624;SDS011;63131;52.298;8.056;2023-02-12T03:46:57;22.30;;;11.10;;
74624;SDS011;63131;52.298;8.056;2023-02-12T03:50:27;23.70;;;12.10;;
74624;SDS011;63131;52.298;8.056;2023-02-12T03:52:34;21.80;;;11.55;;
74624;SDS011;63131;52.298;8.056;2023-02-12T03:54:59;22.15;;;11.50;;
74624;SDS011;63131;52.298;8.056;2023-02-12T03:57:26;24.17;;;11.70;;
74624;SDS011;63131;52.298;8.056;2023-02-12T03:59:56;22.08;;;11.70;;
74624;SDS011;63131;52.298;8.056;2023-02-12T04:02:22;22.95;;;11.88;;
74624;SDS011;63131;52.298;8.056;2023-02-12T04:04:48;26.95;;;11.88;;
74624;SDS011;63131;52.298;8.056;2023-02-12T04:07:13;20.88;;;11.50;;
74624;SDS011;63131;52.298;8.056;2023-02-12T04:09:39;25.45;;;12.15;;
74624;SDS011;63131;52.298;8.056;2023-02-12T04:14:58;22.98;;;11.27;;
74624;SDS011;63131;52.298;8.056;2023-02-12T04:18:00;24.20;;;12.05;;
74624;SDS011;63131;52.298;8.056;2023-02-12T04:26:16;26.63;;;12.57;;
74624;SDS011;63131;52.298;8.056;2023-02-12T04:37:04;23.67;;;13.10;;
74624;SDS011;63131;52.298;8.056;2023-02-12T04:39:35;25.85;;;12.73;;
74624;SDS011;63131;52.298;8.056;2023-02-12T04:42:01;26.05;;;14.07;;
74624;SDS011;63131;52.298;8.056;2023-02-12T04:44:29;27.85;;;13.80;;
74624;SDS011;63131;52.298;8.056;2023-02-12T04:46:56;25.40;;;13.82;;
74624;SDS011;63131;52.298;8.056;2023-02-12T04:49:22;24.00;;;13.63;;
74624;SDS011;63131;52.298;8.056;2023-02-12T04:51:48;26.05;;;13.27;;
74624;SDS011;63131;52.298;8.056;2023-02-12T04:54:14;24.85;;;12.68;;
74624;SDS011;63131;52.298;8.056;2023-02-12T04:56:41;27.02;;;13.52;;
74624;SDS011;63131;52.298;8.056;2023-02-12T04:59:07;26.02;;;14.10;;
74624;SDS011;63131;52.298;8.056;2023-02-12T05:03:59;25.70;;;13.27;;
74624;SDS011;63131;52.298;8.056;2023-02-12T05:06:24;25.52;;;12.18;;
74624;SDS011;63131;52.298;8.056;2023-02-12T05:08:51;26.55;;;13.93;;
74624;SDS011;63131;52.298;8.056;2023-02-12T05:11:17;27.10;;;14.95;;
74624;SDS011;63131;52.298;8.056;2023-02-12T05:13:42;29.65;;;13.75;;
74624;SDS011;63131;52.298;8.056;2023-02-12T05:16:08;25.42;;;13.80;;
74624;SDS011;63131;52.298;8.056;2023-02-12T05:18:33;28.60;;;13.40;;
74624;SDS011;63131;52.298;8.056;2023-02-12T05:21:00;29.77;;;14.57;;
74624;SDS011;63131;52.298;8.056;2023-02-12T05:23:28;26.55;;;14.52;;
74624;SDS011;63131;52.298;8.056;2023-02-12T05:25:54;27.98;;;15.18;;
74624;SDS011;63131;52.298;8.056;2023-02-12T05:28:22;27.92;;;13.43;;
74624;SDS011;63131;52.298;8.056;2023-02-12T05:30:47;26.92;;;13.88;;
74624;SDS011;63131;52.298;8.056;2023-02-12T05:33:13;28.25;;;14.55;;
74624;SDS011;63131;52.298;8.056;2023-02-12T05:35:38;26.80;;;14.40;;
74624;SDS011;63131;52.298;8.056;2023-02-12T05:38:03;25.83;;;14.27;;
74624;SDS011;63131;52.298;8.056;2023-02-12T05:40:29;26.63;;;15.50;;
74624;SDS011;63131;52.298;8.056;2023-02-12T05:42:54;26.65;;;13.10;;
74624;SDS011;63131;52.298;8.056;2023-02-12T05:45:19;26.02;;;14.07;;
74624;SDS011;63131;52.298;8.056;2023-02-12T05:47:45;29.27;;;14.05;;
74624;SDS011;63131;52.298;8.056;2023-02-12T05:50:10;26.90;;;13.27;;
74624;SDS011;63131;52.298;8.056;2023-02-12T05:52:35;28.95;;;15.77;;
74624;SDS011;63131;52.298;8.056;2023-02-12T05:55:01;25.13;;;13.93;;
74624;SDS011;63131;52.298;8.056;2023-02-12T05:57:26;29.73;;;15.90;;
74624;SDS011;63131;52.298;8.056;2023-02-12T05:59:52;27.42;;;15.63;;
74624;SDS011;63131;52.298;8.056;2023-02-12T06:02:17;30.60;;;15.65;;
74624;SDS011;63131;52.298;8.056;2023-02-12T06:04:42;24.80;;;15.43;;
74624;SDS011;63131;52.298;8.056;2023-02-12T06:07:08;26.40;;;14.68;;
74624;SDS011;63131;52.298;8.056;2023-02-12T06:09:33;24.92;;;13.20;;
74624;SDS011;63131;52.298;8.056;2023-02-12T06:11:59;26.75;;;14.20;;
74624;SDS011;63131;52.298;8.056;2023-02-12T06:14:24;28.75;;;13.50;;
74624;SDS011;63131;52.298;8.056;2023-02-12T06:16:50;28.55;;;14.27;;
74624;SDS011;63131;52.298;8.056;2023-02-12T06:19:16;25.70;;;14.30;;
74624;SDS011;63131;52.298;8.056;2023-02-12T06:21:41;27.10;;;14.85;;
74624;SDS011;63131;52.298;8.056;2023-02-12T06:24:08;27.10;;;14.52;;
74624;SDS011;63131;52.298;8.056;2023-02-12T06:26:34;27.98;;;15.13;;
74624;SDS011;63131;52.298;8.056;2023-02-12T06:29:00;31.42;;;14.98;;
74624;SDS011;63131;52.298;8.056;2023-02-12T06:31:30;27.35;;;14.85;;
74624;SDS011;63131;52.298;8.056;2023-02-12T06:33:57;28.33;;;15.77;;
74624;SDS011;63131;52.298;8.056;2023-02-12T06:36:24;32.28;;;16.73;;
74624;SDS011;63131;52.298;8.056;2023-02-12T06:38:50;27.35;;;13.85;;
74624;SDS011;63131;52.298;8.056;2023-02-12T06:41:16;27.90;;;14.88;;
74624;SDS011;63131;52.298;8.056;2023-02-12T06:43:42;30.80;;;15.35;;
74624;SDS011;63131;52.298;8.056;2023-02-12T06:46:07;35.42;;;16.55;;
74624;SDS011;63131;52.298;8.056;2023-02-12T06:48:33;29.95;;;15.77;;
74624;SDS011;63131;52.298;8.056;2023-02-12T06:51:02;29.90;;;15.90;;
74624;SDS011;63131;52.298;8.056;2023-02-12T06:53:32;30.35;;;16.48;;
74624;SDS011;63131;52.298;8.056;2023-02-12T06:55:59;33.20;;;16.40;;
74624;SDS011;63131;52.298;8.056;2023-02-12T06:58:28;31.83;;;16.33;;
74624;SDS011;63131;52.298;8.056;2023-02-12T07:00:54;32.92;;;15.23;;
74624;SDS011;63131;52.298;8.056;2023-02-12T07:03:19;28.95;;;16.10;;
74624;SDS011;63131;52.298;8.056;2023-02-12T07:05:44;31.67;;;16.02;;
74624;SDS011;63131;52.298;8.056;2023-02-12T07:08:12;33.28;;;15.75;;
74624;SDS011;63131;52.298;8.056;2023-02-12T07:10:37;33.55;;;16.08;;
74624;SDS011;63131;52.298;8.056;2023-02-12T07:13:03;29.70;;;15.43;;
74624;SDS011;63131;52.298;8.056;2023-02-12T07:17:54;30.00;;;15.27;;
74624;SDS011;63131;52.298;8.056;2023-02-12T07:20:19;30.08;;;15.32;;
74624;SDS011;63131;52.298;8.056;2023-02-12T07:22:45;28.48;;;14.30;;
74624;SDS011;63131;52.298;8.056;2023-02-12T07:25:10;32.35;;;16.70;;
74624;SDS011;63131;52.298;8.056;2023-02-12T07:27:36;28.52;;;15.30;;
74624;SDS011;63131;52.298;8.056;2023-02-12T07:30:01;31.42;;;16.88;;
74624;SDS011;63131;52.298;8.056;2023-02-12T07:32:27;31.08;;;16.88;;
74624;SDS011;63131;52.298;8.056;2023-02-12T07:34:52;28.25;;;15.02;;
74624;SDS011;63131;52.298;8.056;2023-02-12T07:37:18;31.70;;;16.20;;
74624;SDS011;63131;52.298;8.056;2023-02-12T07:39:46;30.67;;;17.38;;
74624;SDS011;63131;52.298;8.056;2023-02-12T07:42:12;30.15;;;15.65;;
74624;SDS011;63131;52.298;8.056;2023-02-12T07:44:39;34.28;;;15.30;;
74624;SDS011;63131;52.298;8.056;2023-02-12T07:47:04;32.15;;;15.80;;
74624;SDS011;63131;52.298;8.056;2023-02-12T07:49:30;29.60;;;15.70;;
74624;SDS011;63131;52.298;8.056;2023-02-12T07:51:55;31.70;;;17.17;;
74624;SDS011;63131;52.298;8.056;2023-02-12T07:54:20;28.38;;;14.93;;
74624;SDS011;63131;52.298;8.056;2023-02-12T07:56:46;29.13;;;14.60;;
74624;SDS011;63131;52.298;8.056;2023-02-12T07:59:12;33.53;;;17.30;;
74624;SDS011;63131;52.298;8.056;2023-02-12T08:01:40;31.38;;;16.30;;
74624;SDS011;63131;52.298;8.056;2023-02-12T08:04:11;30.27;;;16.48;;
74624;SDS011;63131;52.298;8.056;2023-02-12T08:06:41;32.15;;;16.20;;
74624;SDS011;63131;52.298;8.056;2023-02-12T08:09:13;33.53;;;18.17;;
74624;SDS011;63131;52.298;8.056;2023-02-12T08:11:40;31.65;;;16.25;;
74624;SDS011;63131;52.298;8.056;2023-02-12T08:14:06;34.28;;;15.88;;
74624;SDS011;63131;52.298;8.056;2023-02-12T08:16:34;35.00;;;16.65;;
74624;SDS011;63131;52.298;8.056;2023-02-12T08:19:00;30.65;;;14.63;;
74624;SDS011;63131;52.298;8.056;2023-02-12T08:21:26;31.30;;;14.77;;
74624;SDS011;63131;52.298;8.056;2023-02-12T08:23:53;30.70;;;16.50;;
74624;SDS011;63131;52.298;8.056;2023-02-12T08:26:20;27.05;;;15.65;;
74624;SDS011;63131;52.298;8.056;2023-02-12T08:28:54;32.42;;;16.05;;
74624;SDS011;63131;52.298;8.056;2023-02-12T08:31:25;30.45;;;15.25;;
74624;SDS011;63131;52.298;8.056;2023-02-12T08:33:52;27.73;;;14.25;;
74624;SDS011;63131;52.298;8.056;2023-02-12T08:38:44;25.90;;;14.02;;
74624;SDS011;63131;52.298;8.056;2023-02-12T08:41:17;31.90;;;15.20;;
74624;SDS011;63131;52.298;8.056;2023-02-12T08:43:47;42.78;;;16.75;;
74624;SDS011;63131;52.298;8.056;2023-02-12T08:46:17;32.17;;;15.80;;
74624;SDS011;63131;52.298;8.056;2023-02-12T08:48:44;31.20;;;15.30;;
74624;SDS011;63131;52.298;8.056;2023-02-12T08:53:40;28.45;;;15.80;;
74624;SDS011;63131;52.298;8.056;2023-02-12T08:56:07;28.63;;;13.90;;
74624;SDS011;63131;52.298;8.056;2023-02-12T08:58:34;25.30;;;13.48;;
74624;SDS011;63131;52.298;8.056;2023-02-12T09:03:25;27.58;;;15.15;;
74624;SDS011;63131;52.298;8.056;2023-02-12T09:05:50;28.02;;;14.95;;
74624;SDS011;63131;52.298;8.056;2023-02-12T09:08:16;30.92;;;15.90;;
74624;SDS011;63131;52.298;8.056;2023-02-12T09:10:42;31.65;;;15.65;;
74624;SDS011;63131;52.298;8.056;2023-02-12T09:13:08;29.77;;;15.07;;
74624;SDS011;63131;52.298;8.056;2023-02-12T09:15:37;27.60;;;14.60;;
74624;SDS011;63131;52.298;8.056;2023-02-12T09:18:03;27.63;;;15.00;;
74624;SDS011;63131;52.298;8.056;2023-02-12T09:20:29;29.77;;;15.40;;
74624;SDS011;63131;52.298;8.056;2023-02-12T09:22:54;26.67;;;14.15;;
74624;SDS011;63131;52.298;8.056;2023-02-12T09:25:20;31.48;;;15.40;;
74624;SDS011;63131;52.298;8.056;2023-02-12T09:27:45;29.83;;;15.35;;
74624;SDS011;63131;52.298;8.056;2023-02-12T09:30:11;28.83;;;14.98;;
74624;SDS011;63131;52.298;8.056;2023-02-12T09:32:36;30.52;;;16.67;;
74624;SDS011;63131;52.298;8.056;2023-02-12T09:35:02;29.80;;;15.15;;
74624;SDS011;63131;52.298;8.056;2023-02-12T09:37:27;26.70;;;13.77;;
74624;SDS011;63131;52.298;8.056;2023-02-12T09:39:53;26.90;;;14.85;;
74624;SDS011;63131;52.298;8.056;2023-02-12T09:45:01;30.48;;;15.63;;
74624;SDS011;63131;52.298;8.056;2023-02-12T09:50:42;25.63;;;14.15;;
74624;SDS011;63131;52.298;8.056;2023-02-12T09:53:19;24.70;;;13.35;;
74624;SDS011;63131;52.298;8.056;2023-02-12T09:55:46;26.05;;;12.60;;
74624;SDS011;63131;52.298;8.056;2023-02-12T10:01:16;24.48;;;11.85;;
74624;SDS011;63131;52.298;8.056;2023-02-12T10:03:43;22.10;;;12.85;;
74624;SDS011;63131;52.298;8.056;2023-02-12T10:06:13;24.60;;;12.88;;
74624;SDS011;63131;52.298;8.056;2023-02-12T10:26:28;19.33;;;9.93;;
74624;SDS011;63131;52.298;8.056;2023-02-12T10:28:57;21.65;;;10.43;;
74624;SDS011;63131;52.298;8.056;2023-02-12T10:31:31;19.13;;;11.05;;
74624;SDS011;63131;52.298;8.056;2023-02-12T10:33:59;19.52;;;9.80;;
74624;SDS011;63131;52.298;8.056;2023-02-12T10:36:40;21.77;;;10.52;;
74624;SDS011;63131;52.298;8.056;2023-02-12T10:41:38;23.40;;;9.77;;
74624;SDS011;63131;52.298;8.056;2023-02-12T10:44:05;20.88;;;10.40;;
74624;SDS011;63131;52.298;8.056;2023-02-12T10:46:32;19.42;;;9.75;;
74624;SDS011;63131;52.298;8.056;2023-02-12T10:48:57;18.20;;;8.85;;
74624;SDS011;63131;52.298;8.056;2023-02-12T10:51:28;18.67;;;9.77;;
74624;SDS011;63131;52.298;8.056;2023-02-12T10:54:46;21.27;;;9.73;;
74624;SDS011;63131;52.298;8.056;2023-02-12T10:57:07;17.95;;;9.73;;
74624;SDS011;63131;52.298;8.056;2023-02-12T10:59:34;19.88;;;9.23;;
74624;SDS011;63131;52.298;8.056;2023-02-12T11:02:02;21.60;;;10.15;;
74624;SDS011;63131;52.298;8.056;2023-02-12T11:04:49;18.63;;;10.18;;
74624;SDS011;63131;52.298;8.056;2023-02-12T11:07:50;17.80;;;10.15;;
74624;SDS011;63131;52.298;8.056;2023-02-12T11:10:31;20.13;;;9.30;;
74624;SDS011;63131;52.298;8.056;2023-02-12T11:13:05;20.00;;;10.20;;
74624;SDS011;63131;52.298;8.056;2023-02-12T11:15:47;17.70;;;9.55;;
74624;SDS011;63131;52.298;8.056;2023-02-12T11:18:46;20.48;;;10.32;;
74624;SDS011;63131;52.298;8.056;2023-02-12T11:21:05;16.45;;;8.38;;
74624;SDS011;63131;52.298;8.056;2023-02-12T11:23:40;20.23;;;10.73;;
74624;SDS011;63131;52.298;8.056;2023-02-12T11:28:41;17.48;;;10.18;;
74624;SDS011;63131;52.298;8.056;2023-02-12T11:31:25;18.08;;;8.65;;
74624;SDS011;63131;52.298;8.056;2023-02-12T11:36:48;16.90;;;8.60;;
74624;SDS011;63131;52.298;8.056;2023-02-12T11:39:22;17.52;;;8.18;;
74624;SDS011;63131;52.298;8.056;2023-02-12T11:41:55;17.88;;;8.45;;
74624;SDS011;63131;52.298;8.056;2023-02-12T11:44:26;18.63;;;8.93;;
74624;SDS011;63131;52.298;8.056;2023-02-12T11:46:56;18.90;;;8.45;;
74624;SDS011;63131;52.298;8.056;2023-02-12T11:49:24;20.48;;;8.95;;
74624;SDS011;63131;52.298;8.056;2023-02-12T11:51:55;15.45;;;8.20;;
74624;SDS011;63131;52.298;8.056;2023-02-12T11:54:22;15.82;;;8.35;;
74624;SDS011;63131;52.298;8.056;2023-02-12T11:56:49;15.65;;;7.78;;
74624;SDS011;63131;52.298;8.056;2023-02-12T11:59:21;15.57;;;7.18;;
74624;SDS011;63131;52.298;8.056;2023-02-12T12:01:53;17.85;;;8.73;;
74624;SDS011;63131;52.298;8.056;2023-02-12T12:04:19;13.30;;;6.97;;
74624;SDS011;63131;52.298;8.056;2023-02-12T12:09:13;14.87;;;7.00;;
74624;SDS011;63131;52.298;8.056;2023-02-12T12:17:37;15.10;;;7.25;;
74624;SDS011;63131;52.298;8.056;2023-02-12T12:20:25;13.88;;;6.88;;
74624;SDS011;63131;52.298;8.056;2023-02-12T12:22:56;15.63;;;6.68;;
74624;SDS011;63131;52.298;8.056;2023-02-12T12:25:30;13.18;;;7.07;;
74624;SDS011;63131;52.298;8.056;2023-02-12T12:33:05;12.68;;;5.82;;
74624;SDS011;63131;52.298;8.056;2023-02-12T12:38:34;12.15;;;5.40;;
74624;SDS011;63131;52.298;8.056;2023-02-12T13:02:59;9.20;;;3.60;;
74624;SDS011;63131;52.298;8.056;2023-02-12T13:11:38;11.45;;;3.67;;
74624;SDS011;63131;52.298;8.056;2023-02-12T13:16:44;9.98;;;3.53;;
74624;SDS011;63131;52.298;8.056;2023-02-12T13:22:47;8.45;;;2.88;;
74624;SDS011;63131;52.298;8.056;2023-02-12T13:25:03;9.68;;;4.07;;
74624;SDS011;63131;52.298;8.056;2023-02-12T13:27:36;9.20;;;3.45;;
74624;SDS011;63131;52.298;8.056;2023-02-12T13:30:06;8.95;;;2.90;;
74624;SDS011;63131;52.298;8.056;2023-02-12T13:32:43;7.90;;;3.08;;
74624;SDS011;63131;52.298;8.056;2023-02-12T13:35:14;7.70;;;2.95;;
74624;SDS011;63131;52.298;8.056;2023-02-12T13:37:46;11.20;;;3.30;;
74624;SDS011;63131;52.298;8.056;2023-02-12T13:40:15;8.88;;;2.90;;
74624;SDS011;63131;52.298;8.056;2023-02-12T13:42:51;10.48;;;3.30;;
74624;SDS011;63131;52.298;8.056;2023-02-12T13:51:01;8.38;;;2.97;;
74624;SDS011;63131;52.298;8.056;2023-02-12T13:58:55;8.77;;;3.05;;
74624;SDS011;63131;52.298;8.056;2023-02-12T14:04:53;9.15;;;3.20;;
74624;SDS011;63131;52.298;8.056;2023-02-12T14:09:26;7.53;;;2.30;;
74624;SDS011;63131;52.298;8.056;2023-02-12T14:11:56;8.07;;;2.05;;
74624;SDS011;63131;52.298;8.056;2023-02-12T14:14:27;9.02;;;2.50;;
74624;SDS011;63131;52.298;8.056;2023-02-12T14:16:54;7.45;;;2.45;;
74624;SDS011;63131;52.298;8.056;2023-02-12T14:22:10;7.78;;;2.60;;
74624;SDS011;63131;52.298;8.056;2023-02-12T14:30:02;8.32;;;2.88;;
74624;SDS011;63131;52.298;8.056;2023-02-12T14:37:55;7.75;;;2.42;;
74624;SDS011;63131;52.298;8.056;2023-02-12T14:40:29;9.40;;;2.67;;
74624;SDS011;63131;52.298;8.056;2023-02-12T14:48:56;8.60;;;3.17;;
74624;SDS011;63131;52.298;8.056;2023-02-12T14:51:30;9.15;;;3.00;;
74624;SDS011;63131;52.298;8.056;2023-02-12T14:54:01;7.82;;;3.20;;
74624;SDS011;63131;52.298;8.056;2023-02-12T14:56:28;9.35;;;3.50;;
74624;SDS011;63131;52.298;8.056;2023-02-12T14:58:57;10.15;;;3.70;;
74624;SDS011;63131;52.298;8.056;2023-02-12T15:01:25;9.93;;;3.80;;
74624;SDS011;63131;52.298;8.056;2023-02-12T15:03:57;10.73;;;3.78;;
74624;SDS011;63131;52.298;8.056;2023-02-12T15:06:58;11.02;;;3.50;;
74624;SDS011;63131;52.298;8.056;2023-02-12T15:09:19;11.27;;;4.43;;
74624;SDS011;63131;52.298;8.056;2023-02-12T15:11:48;8.57;;;3.45;;
74624;SDS011;63131;52.298;8.056;2023-02-12T15:14:34;8.82;;;2.97;;
74624;SDS011;63131;52.298;8.056;2023-02-12T15:17:01;10.45;;;3.50;;
74624;SDS011;63131;52.298;8.056;2023-02-12T15:19:36;9.50;;;3.50;;
74624;SDS011;63131;52.298;8.056;2023-02-12T15:22:03;10.30;;;4.20;;
74624;SDS011;63131;52.298;8.056;2023-02-12T15:24:43;8.85;;;3.53;;
74624;SDS011;63131;52.298;8.056;2023-02-12T15:27:10;11.73;;;3.60;;
74624;SDS011;63131;52.298;8.056;2023-02-12T15:29:41;8.95;;;3.80;;
74624;SDS011;63131;52.298;8.056;2023-02-12T15:32:13;10.50;;;5.78;;
74624;SDS011;63131;52.298;8.056;2023-02-12T15:34:40;10.98;;;4.82;;
74624;SDS011;63131;52.298;8.056;2023-02-12T15:37:07;9.50;;;4.07;;
74624;SDS011;63131;52.298;8.056;2023-02-12T15:39:40;11.52;;;4.10;;
74624;SDS011;63131;52.298;8.056;2023-02-12T15:42:23;9.90;;;3.50;;
74624;SDS011;63131;52.298;8.056;2023-02-12T15:47:41;9.88;;;4.43;;
74624;SDS011;63131;52.298;8.056;2023-02-12T15:50:14;9.48;;;3.80;;
74624;SDS011;63131;52.298;8.056;2023-02-12T15:52:41;9.45;;;3.28;;
74624;SDS011;63131;52.298;8.056;2023-02-12T15:55:18;9.90;;;3.92;;
74624;SDS011;63131;52.298;8.056;2023-02-12T15:57:49;9.32;;;3.88;;
74624;SDS011;63131;52.298;8.056;2023-02-12T16:01:02;10.00;;;3.63;;
74624;SDS011;63131;52.298;8.056;2023-02-12T16:03:15;10.13;;;4.68;;
74624;SDS011;63131;52.298;8.056;2023-02-12T16:05:42;9.55;;;3.80;;
74624;SDS011;63131;52.298;8.056;2023-02-12T16:08:09;10.93;;;4.47;;
74624;SDS011;63131;52.298;8.056;2023-02-12T16:10:41;10.15;;;3.88;;
74624;SDS011;63131;52.298;8.056;2023-02-12T16:13:10;8.93;;;4.00;;
74624;SDS011;63131;52.298;8.056;2023-02-12T16:15:41;9.55;;;3.50;;
74624;SDS011;63131;52.298;8.056;2023-02-12T16:18:06;10.68;;;3.75;;
74624;SDS011;63131;52.298;8.056;2023-02-12T16:20:47;10.63;;;4.55;;
74624;SDS011;63131;52.298;8.056;2023-02-12T16:23:13;10.23;;;3.80;;
74624;SDS011;63131;52.298;8.056;2023-02-12T16:25:39;9.07;;;3.55;;
74624;SDS011;63131;52.298;8.056;2023-02-12T16:28:05;11.55;;;5.07;;
74624;SDS011;63131;52.298;8.056;2023-02-12T16:30:33;10.70;;;5.47;;
74624;SDS011;63131;52.298;8.056;2023-02-12T16:33:03;11.98;;;4.97;;
74624;SDS011;63131;52.298;8.056;2023-02-12T16:43:39;10.45;;;4.95;;
74624;SDS011;63131;52.298;8.056;2023-02-12T16:46:05;11.88;;;5.60;;
74624;SDS011;63131;52.298;8.056;2023-02-12T16:48:35;10.40;;;4.40;;
74624;SDS011;63131;52.298;8.056;2023-02-12T16:51:05;9.93;;;4.43;;
74624;SDS011;63131;52.298;8.056;2023-02-12T16:55:59;11.05;;;5.28;;
74624;SDS011;63131;52.298;8.056;2023-02-12T17:00:51;10.47;;;4.37;;
74624;SDS011;63131;52.298;8.056;2023-02-12T17:03:17;10.88;;;4.95;;
74624;SDS011;63131;52.298;8.056;2023-02-12T17:05:42;11.77;;;5.43;;
74624;SDS011;63131;52.298;8.056;2023-02-12T17:08:13;11.57;;;5.65;;
74624;SDS011;63131;52.298;8.056;2023-02-12T17:10:39;12.50;;;5.28;;
74624;SDS011;63131;52.298;8.056;2023-02-12T17:13:05;13.88;;;5.28;;
74624;SDS011;63131;52.298;8.056;2023-02-12T17:15:32;12.73;;;5.10;;
74624;SDS011;63131;52.298;8.056;2023-02-12T17:18:02;11.57;;;5.32;;
74624;SDS011;63131;52.298;8.056;2023-02-12T17:20:27;11.55;;;5.30;;
74624;SDS011;63131;52.298;8.056;2023-02-12T17:22:53;12.25;;;5.15;;
74624;SDS011;63131;52.298;8.056;2023-02-12T17:25:21;13.93;;;6.60;;
74624;SDS011;63131;52.298;8.056;2023-02-12T17:27:46;13.23;;;6.53;;
74624;SDS011;63131;52.298;8.056;2023-02-12T17:30:16;13.38;;;5.95;;
74624;SDS011;63131;52.298;8.056;2023-02-12T17:32:43;15.88;;;6.72;;
74624;SDS011;63131;52.298;8.056;2023-02-12T17:35:08;13.15;;;6.22;;
74624;SDS011;63131;52.298;8.056;2023-02-12T17:37:34;16.13;;;7.20;;
74624;SDS011;63131;52.298;8.056;2023-02-12T17:39:59;14.27;;;6.85;;
74624;SDS011;63131;52.298;8.056;2023-02-12T17:42:25;13.27;;;5.93;;
74624;SDS011;63131;52.298;8.056;2023-02-12T17:44:51;14.70;;;7.65;;
74624;SDS011;63131;52.298;8.056;2023-02-12T17:47:16;15.77;;;7.00;;
74624;SDS011;63131;52.298;8.056;2023-02-12T17:49:41;12.57;;;6.68;;
74624;SDS011;63131;52.298;8.056;2023-02-12T17:52:07;15.07;;;7.35;;